createdAt,value
2023-05-09T00:02:18.485Z,11.42
2023-05-09T00:05:24.307Z,11.29
2023-05-09T00:08:26.774Z,11.30
2023-05-09T00:11:29.591Z,11.27
2023-05-09T00:14:33.641Z,11.24
2023-05-09T00:17:38.593Z,11.26
2023-05-09T00:20:41.210Z,11.27
2023-05-09T00:23:43.847Z,11.24
2023-05-09T00:26:46.106Z,11.25
2023-05-09T00:29:48.685Z,11.27
2023-05-09T00:32:51.329Z,11.31
2023-05-09T00:35:54.562Z,11.43
2023-05-09T00:38:57.321Z,11.40
2023-05-09T00:42:00.010Z,11.25
2023-05-09T00:45:02.952Z,11.30
2023-05-09T00:48:06.214Z,11.28
2023-05-09T00:51:08.777Z,11.26
2023-05-09T00:54:12.144Z,11.14
2023-05-09T00:57:14.714Z,11.24
2023-05-09T01:00:17.823Z,11.24
2023-05-09T01:03:20.605Z,11.25
2023-05-09T01:06:33.012Z,11.32
2023-05-09T01:09:46.925Z,11.30
2023-05-09T01:12:55.235Z,11.19
2023-05-09T01:16:15.428Z,11.07
2023-05-09T01:19:33.185Z,11.08
2023-05-09T01:22:37.938Z,11.05
2023-05-09T01:25:57.854Z,11.02
2023-05-09T01:29:18.843Z,10.98
2023-05-09T01:32:25.967Z,10.88
2023-05-09T01:35:31.564Z,10.73
2023-05-09T01:38:37.658Z,10.86
2023-05-09T01:41:40.238Z,10.65
2023-05-09T01:44:45.930Z,10.68
2023-05-09T01:47:50.097Z,10.60
2023-05-09T01:50:54.822Z,10.76
2023-05-09T01:53:58.580Z,10.68
2023-05-09T01:57:03.848Z,10.50
2023-05-09T02:00:09.164Z,10.45
2023-05-09T02:03:15.349Z,10.51
2023-05-09T02:06:21.377Z,10.42
2023-05-09T02:09:24.192Z,10.37
2023-05-09T02:12:26.875Z,10.31
2023-05-09T02:15:29.650Z,10.40
2023-05-09T02:18:32.786Z,10.45
2023-05-09T02:21:36.247Z,10.42
2023-05-09T02:24:40.066Z,10.38
2023-05-09T02:27:46.131Z,10.30
2023-05-09T02:30:49.945Z,10.21
2023-05-09T02:33:54.904Z,10.27
2023-05-09T02:36:57.693Z,10.23
2023-05-09T02:40:00.344Z,10.07
2023-05-09T02:43:04.089Z,10.11
2023-05-09T02:46:06.691Z,10.18
2023-05-09T02:49:10.205Z,10.08
2023-05-09T02:52:17.583Z,10.03
2023-05-09T02:55:20.390Z,10.04
2023-05-09T02:58:22.787Z,10.16
2023-05-09T03:01:25.561Z,10.06
2023-05-09T03:04:28.126Z,10.09
2023-05-09T03:07:31.216Z,10.13
2023-05-09T03:10:34.396Z,10.30
2023-05-09T03:13:37.809Z,10.26
2023-05-09T03:16:40.290Z,10.20
2023-05-09T03:19:43.369Z,10.19
2023-05-09T03:22:45.821Z,10.07
2023-05-09T03:25:48.513Z,10.05
2023-05-09T03:28:51.596Z,9.93
2023-05-09T03:31:55.157Z,9.87
2023-05-09T03:34:57.889Z,9.87
2023-05-09T03:38:01.512Z,10.05
2023-05-09T03:41:04.139Z,9.88
2023-05-09T03:44:07.992Z,9.88
2023-05-09T03:47:10.223Z,9.98
2023-05-09T03:50:13.076Z,9.81
2023-05-09T03:53:16.312Z,9.76
2023-05-09T03:56:19.484Z,9.99
2023-05-09T03:59:22.277Z,9.85
2023-05-09T04:02:25.678Z,9.92
2023-05-09T04:05:28.937Z,9.94
2023-05-09T04:08:32.340Z,9.97
2023-05-09T04:11:36.080Z,9.98
2023-05-09T04:14:39.482Z,10.00
2023-05-09T04:17:42.379Z,10.04
2023-05-09T04:20:44.900Z,9.86
2023-05-09T04:23:48.288Z,10.22
2023-05-09T04:26:51.040Z,10.01
2023-05-09T04:29:54.163Z,10.19
2023-05-09T04:32:56.880Z,10.13
2023-05-09T04:36:00.657Z,9.98
2023-05-09T04:39:04.021Z,10.32
2023-05-09T04:42:07.830Z,10.34
2023-05-09T04:45:11.816Z,10.32
2023-05-09T04:48:14.981Z,10.22
2023-05-09T04:51:17.536Z,10.22
2023-05-09T04:54:21.501Z,10.41
2023-05-09T04:57:26.573Z,10.26
2023-05-09T05:00:30.111Z,10.50
2023-05-09T05:03:33.038Z,10.44
2023-05-09T05:06:36.203Z,10.45
2023-05-09T05:09:38.972Z,10.47
2023-05-09T05:12:41.835Z,10.64
2023-05-09T05:15:44.574Z,10.61
2023-05-09T05:18:48.182Z,10.61
2023-05-09T05:21:50.929Z,10.66
2023-05-09T05:24:53.735Z,10.77
2023-05-09T05:27:56.052Z,10.65
2023-05-09T05:30:58.857Z,10.87
2023-05-09T05:34:01.932Z,10.87
2023-05-09T05:37:05.659Z,10.91
2023-05-09T05:40:08.848Z,11.18
2023-05-09T05:43:11.925Z,11.15
2023-05-09T05:46:14.466Z,11.33
2023-05-09T05:49:17.957Z,11.32
2023-05-09T05:52:20.468Z,11.46
2023-05-09T05:55:23.510Z,11.47
2023-05-09T05:58:26.665Z,11.57
2023-05-09T06:01:29.469Z,11.51
2023-05-09T06:04:33.168Z,11.71
2023-05-09T06:07:35.706Z,11.80
2023-05-09T06:10:38.432Z,11.86
2023-05-09T06:13:41.102Z,11.97
2023-05-09T06:16:44.158Z,11.97
2023-05-09T06:19:46.605Z,11.83
2023-05-09T06:22:49.372Z,12.25
2023-05-09T06:25:51.778Z,12.36
2023-05-09T06:28:54.461Z,12.50
2023-05-09T06:31:57.009Z,12.71
2023-05-09T06:35:01.760Z,12.86
2023-05-09T06:38:04.147Z,12.96
2023-05-09T06:41:06.788Z,13.30
2023-05-09T06:44:09.230Z,13.45
2023-05-09T06:47:11.858Z,13.62
2023-05-09T06:50:14.271Z,13.84
2023-05-09T06:53:17.165Z,14.07
2023-05-09T06:56:23.111Z,14.27
2023-05-09T06:59:25.954Z,14.33
2023-05-09T07:02:28.330Z,14.49
2023-05-09T07:05:31.442Z,14.59
2023-05-09T07:08:36.496Z,14.76
2023-05-09T07:11:39.192Z,14.74
2023-05-09T07:14:41.968Z,14.98
2023-05-09T07:17:44.889Z,14.96
2023-05-09T07:20:47.279Z,15.04
2023-05-09T07:23:49.987Z,15.23
2023-05-09T07:26:58.828Z,15.55
2023-05-09T07:30:01.509Z,15.73
2023-05-09T07:33:04.098Z,15.71
2023-05-09T07:36:06.918Z,15.81
2023-05-09T07:39:09.368Z,16.15
2023-05-09T07:42:12.014Z,16.21
2023-05-09T07:45:14.563Z,16.51
2023-05-09T07:48:17.458Z,16.81
2023-05-09T07:51:19.879Z,16.90
2023-05-09T07:54:22.627Z,17.12
2023-05-09T07:57:25.061Z,17.32
2023-05-09T08:00:30.665Z,17.54
2023-05-09T08:03:33.582Z,17.55
2023-05-09T08:06:36.776Z,17.85
2023-05-09T08:09:39.445Z,18.25
2023-05-09T08:12:41.854Z,18.44
2023-05-09T08:15:44.782Z,18.61
2023-05-09T08:18:47.233Z,18.79
2023-05-09T08:21:49.906Z,19.03
2023-05-09T08:24:52.264Z,19.47
2023-05-09T08:27:55.020Z,19.75
2023-05-09T08:30:57.929Z,20.05
2023-05-09T08:34:01.162Z,20.22
2023-05-09T08:37:04.433Z,20.50
2023-05-09T08:40:07.895Z,20.83
2023-05-09T08:43:12.391Z,20.77
2023-05-09T08:46:53.970Z,21.11
2023-05-09T08:49:56.654Z,21.18
2023-05-09T08:53:02.687Z,21.31
2023-05-09T08:56:05.691Z,21.93
2023-05-09T08:59:09.068Z,22.09
2023-05-09T09:02:14.523Z,22.16
2023-05-09T09:05:39.636Z,22.31
2023-05-09T09:08:40.983Z,22.54
2023-05-09T09:11:44.644Z,22.79
2023-05-09T09:14:50.162Z,23.03
2023-05-09T09:17:56.779Z,22.90
2023-05-09T09:21:09.502Z,23.11
2023-05-09T09:24:18.150Z,23.49
2023-05-09T09:27:20.461Z,23.78
2023-05-09T09:30:26.685Z,23.73
2023-05-09T09:33:29.593Z,24.09
2023-05-09T09:36:33.080Z,24.33
2023-05-09T09:39:35.760Z,24.38
2023-05-09T09:42:48.861Z,24.08
2023-05-09T09:45:51.713Z,23.57
2023-05-09T09:48:57.680Z,23.76
2023-05-09T09:52:02.784Z,24.02
2023-05-09T09:55:05.879Z,23.93
2023-05-09T09:58:18.174Z,23.46
2023-05-09T10:01:27.611Z,22.84
2023-05-09T10:04:36.541Z,22.17
2023-05-09T10:07:39.001Z,22.19
2023-05-09T10:10:41.892Z,22.27
2023-05-09T10:13:45.741Z,22.03
2023-05-09T10:16:49.783Z,21.45
2023-05-09T10:19:53.053Z,21.60
2023-05-09T10:22:57.223Z,21.74
2023-05-09T10:26:09.930Z,22.20
2023-05-09T10:29:14.811Z,22.86
2023-05-09T10:32:46.687Z,22.79
2023-05-09T10:35:52.063Z,22.69
2023-05-09T10:38:56.337Z,23.07
2023-05-09T10:42:00.729Z,22.46
2023-05-09T10:45:03.237Z,22.00
2023-05-09T10:48:09.009Z,21.20
2023-05-09T10:51:13.255Z,21.41
2023-05-09T10:54:30.092Z,21.62
2023-05-09T10:57:35.846Z,22.10
2023-05-09T11:00:42.592Z,22.11
2023-05-09T11:03:56.323Z,22.29
2023-05-09T11:07:00.592Z,22.80
2023-05-09T11:10:22.679Z,23.54
2023-05-09T11:13:30.456Z,23.19
2023-05-09T11:17:06.738Z,22.95
2023-05-09T11:20:10.172Z,22.70
2023-05-09T11:23:17.391Z,21.96
2023-05-09T11:26:23.710Z,22.20
2023-05-09T11:29:30.334Z,22.59
2023-05-09T11:32:45.588Z,23.11
2023-05-09T11:35:48.685Z,23.03
2023-05-09T11:39:09.007Z,22.75
2023-05-09T11:42:11.576Z,22.59
2023-05-09T11:45:15.672Z,22.96
2023-05-09T11:48:22.598Z,22.47
2023-05-09T11:51:25.238Z,22.36
2023-05-09T11:54:27.956Z,21.76
2023-05-09T11:57:30.864Z,21.76
2023-05-09T12:00:33.395Z,21.42
2023-05-09T12:03:36.461Z,21.29
2023-05-09T12:06:38.914Z,21.71
2023-05-09T12:09:43.600Z,22.03
2023-05-09T12:12:50.337Z,22.27
2023-05-09T12:16:00.798Z,22.57
2023-05-09T12:19:05.159Z,22.76
2023-05-09T12:22:08.285Z,22.75
2023-05-09T12:25:12.196Z,22.61
2023-05-09T12:28:16.196Z,22.43
2023-05-09T12:31:18.853Z,22.21
2023-05-09T12:34:21.871Z,22.10
2023-05-09T12:37:24.314Z,22.20
2023-05-09T12:40:27.906Z,22.57
2023-05-09T12:44:10.798Z,22.42
2023-05-09T12:47:13.650Z,22.13
2023-05-09T12:50:16.120Z,21.62
2023-05-09T12:53:30.829Z,21.44
2023-05-09T12:56:35.804Z,21.02
2023-05-09T12:59:46.710Z,20.56
2023-05-09T13:02:50.863Z,20.47
2023-05-09T13:05:58.190Z,20.06
2023-05-09T13:09:02.511Z,19.98
2023-05-09T13:12:10.014Z,20.00
2023-05-09T13:15:13.004Z,19.83
2023-05-09T13:18:16.104Z,19.71
2023-05-09T13:21:20.545Z,19.77
2023-05-09T13:24:23.995Z,19.97
2023-05-09T13:27:27.905Z,20.03
2023-05-09T13:30:31.454Z,19.92
2023-05-09T13:33:34.178Z,19.81
2023-05-09T13:36:37.431Z,19.68
2023-05-09T13:39:40.093Z,19.64
2023-05-09T13:42:42.835Z,19.70
2023-05-09T13:45:45.778Z,19.82
2023-05-09T13:48:48.529Z,19.80
2023-05-09T13:51:50.980Z,19.74
2023-05-09T13:54:54.830Z,19.66
2023-05-09T13:57:57.259Z,19.47
2023-05-09T14:00:59.904Z,19.34
2023-05-09T14:04:05.503Z,19.14
2023-05-09T14:07:09.627Z,19.18
2023-05-09T14:10:13.035Z,19.11
2023-05-09T14:13:15.799Z,19.11
2023-05-09T14:16:20.177Z,19.06
2023-05-09T14:19:25.680Z,19.01
2023-05-09T14:22:28.391Z,19.00
2023-05-09T14:25:30.800Z,19.00
2023-05-09T14:28:33.584Z,19.12
2023-05-09T14:31:36.303Z,19.21
2023-05-09T14:34:41.592Z,19.42
2023-05-09T14:37:44.091Z,19.35
2023-05-09T14:40:46.853Z,19.27
2023-05-09T14:43:49.240Z,19.05
2023-05-09T14:46:51.968Z,18.93
2023-05-09T14:49:54.538Z,19.04
2023-05-09T14:52:57.392Z,18.98
2023-05-09T14:55:59.780Z,18.92
2023-05-09T14:59:03.814Z,18.82
2023-05-09T15:02:06.104Z,18.74
2023-05-09T15:05:11.925Z,18.64
2023-05-09T15:08:16.787Z,18.33
2023-05-09T15:11:19.605Z,18.52
2023-05-09T15:14:22.124Z,18.48
2023-05-09T15:17:24.775Z,18.48
2023-05-09T15:20:27.187Z,18.31
2023-05-09T15:23:29.837Z,18.54
2023-05-09T15:26:32.399Z,18.50
2023-05-09T15:29:35.207Z,18.49
2023-05-09T15:32:41.386Z,18.59
2023-05-09T15:35:45.162Z,18.40
2023-05-09T15:38:49.627Z,18.52
2023-05-09T15:41:52.665Z,18.65
2023-05-09T15:44:55.036Z,18.51
2023-05-09T15:47:57.709Z,18.45
2023-05-09T15:51:00.283Z,18.56
2023-05-09T15:54:02.993Z,18.55
2023-05-09T15:57:05.604Z,18.54
2023-05-09T16:00:10.053Z,18.52
2023-05-09T16:03:15.358Z,18.48
2023-05-09T16:06:18.369Z,18.32
2023-05-09T16:09:20.871Z,18.04
2023-05-09T16:12:25.207Z,18.28
2023-05-09T16:15:27.740Z,18.28
2023-05-09T16:18:31.216Z,18.37
2023-05-09T16:21:33.865Z,18.36
2023-05-09T16:24:37.586Z,18.31
2023-05-09T16:27:40.102Z,18.27
2023-05-09T16:30:42.873Z,17.85
2023-05-09T16:33:47.054Z,18.07
2023-05-09T16:36:50.112Z,17.98
2023-05-09T16:39:52.826Z,18.08
2023-05-09T16:42:55.474Z,17.75
2023-05-09T16:45:57.885Z,17.98
2023-05-09T16:49:00.555Z,17.81
2023-05-09T16:52:02.976Z,17.87
2023-05-09T16:55:06.244Z,17.79
2023-05-09T16:58:08.575Z,17.82
2023-05-09T17:01:11.567Z,17.76
2023-05-09T17:04:17.083Z,17.59
2023-05-09T17:07:22.007Z,17.66
2023-05-09T17:10:24.718Z,17.65
2023-05-09T17:13:28.358Z,17.63
2023-05-09T17:16:32.390Z,17.59
2023-05-09T17:19:37.522Z,17.44
2023-05-09T17:22:39.987Z,17.51
2023-05-09T17:25:43.597Z,17.26
2023-05-09T17:28:49.796Z,17.41
2023-05-09T17:31:52.720Z,17.29
2023-05-09T17:34:55.667Z,16.97
2023-05-09T17:37:58.628Z,17.31
2023-05-09T17:41:01.104Z,17.10
2023-05-09T17:44:04.119Z,17.22
2023-05-09T17:47:06.676Z,17.06
2023-05-09T17:50:10.637Z,17.02
2023-05-09T17:53:14.064Z,17.11
2023-05-09T17:56:16.675Z,16.98
2023-05-09T17:59:19.583Z,17.08
2023-05-09T18:02:24.194Z,16.67
2023-05-09T18:05:27.508Z,17.01
2023-05-09T18:08:31.270Z,16.57
2023-05-09T18:11:35.293Z,16.93
2023-05-09T18:14:38.995Z,16.85
2023-05-09T18:17:44.498Z,16.85
2023-05-09T18:20:49.112Z,16.83
2023-05-09T18:23:59.295Z,16.33
2023-05-09T18:27:03.212Z,16.80
2023-05-09T18:30:08.122Z,16.37
2023-05-09T18:33:10.784Z,16.72
2023-05-09T18:36:15.177Z,16.39
2023-05-09T18:39:17.733Z,16.27
2023-05-09T18:42:20.678Z,15.90
2023-05-09T18:45:23.429Z,16.53
2023-05-09T18:48:26.239Z,16.52
2023-05-09T18:51:29.777Z,16.44
2023-05-09T18:54:32.681Z,16.37
2023-05-09T18:57:35.078Z,16.32
2023-05-09T19:00:39.400Z,16.28
2023-05-09T19:03:45.793Z,16.24
2023-05-09T19:06:48.714Z,15.51
2023-05-09T19:09:51.515Z,14.69
2023-05-09T19:12:54.271Z,14.23
2023-05-09T19:15:56.699Z,13.91
2023-05-09T19:18:59.653Z,13.62
2023-05-09T19:22:02.133Z,13.32
2023-05-09T19:25:05.035Z,13.14
2023-05-09T19:28:07.326Z,13.02
2023-05-09T19:31:10.016Z,13.12
2023-05-09T19:34:12.713Z,13.00
2023-05-09T19:37:15.355Z,12.96
2023-05-09T19:40:18.090Z,13.05
2023-05-09T19:43:20.853Z,12.85
2023-05-09T19:46:23.305Z,12.99
2023-05-09T19:49:26.000Z,12.85
2023-05-09T19:52:29.624Z,12.89
2023-05-09T19:55:32.102Z,13.03
2023-05-09T19:58:34.803Z,13.06
2023-05-09T20:01:38.599Z,13.09
2023-05-09T20:04:46.535Z,12.95
2023-05-09T20:07:49.548Z,13.09
2023-05-09T20:10:52.826Z,13.15
2023-05-09T20:13:55.362Z,13.19
2023-05-09T20:16:58.073Z,12.99
2023-05-09T20:20:00.838Z,13.13
2023-05-09T20:23:03.997Z,13.27
2023-05-09T20:26:06.562Z,13.33
2023-05-09T20:29:09.268Z,13.38
2023-05-09T20:32:11.552Z,13.41
2023-05-09T20:35:14.252Z,13.32
2023-05-09T20:38:16.765Z,13.36
2023-05-09T20:41:19.409Z,13.40
2023-05-09T20:44:21.736Z,13.40
2023-05-09T20:47:24.578Z,13.50
2023-05-09T20:50:27.074Z,13.52
2023-05-09T20:53:31.765Z,13.42
2023-05-09T20:56:35.631Z,13.53
2023-05-09T20:59:38.390Z,13.56
2023-05-09T21:02:40.950Z,13.55
2023-05-09T21:05:43.692Z,13.56
2023-05-09T21:08:46.001Z,13.59
2023-05-09T21:11:48.586Z,13.40
2023-05-09T21:14:51.152Z,13.60
2023-05-09T21:17:53.773Z,13.49
2023-05-09T21:20:56.124Z,13.62
2023-05-09T21:24:09.095Z,13.50
2023-05-09T21:27:11.521Z,13.62
2023-05-09T21:30:15.041Z,13.51
2023-05-09T21:33:17.506Z,13.69
2023-05-09T21:36:20.241Z,13.52
2023-05-09T21:39:22.567Z,13.67
2023-05-09T21:42:25.268Z,13.55
2023-05-09T21:45:27.869Z,13.66
2023-05-09T21:48:30.576Z,13.56
2023-05-09T21:51:34.900Z,13.57
2023-05-09T21:54:37.525Z,13.69
2023-05-09T21:57:39.803Z,13.72
2023-05-09T22:00:42.418Z,13.66
2023-05-09T22:03:45.783Z,13.65
2023-05-09T22:06:48.619Z,13.65
2023-05-09T22:09:51.763Z,13.65
2023-05-09T22:12:54.200Z,13.67
2023-05-09T22:15:56.854Z,13.72
2023-05-09T22:18:59.191Z,13.72
2023-05-09T22:22:01.766Z,13.68
2023-05-09T22:25:05.040Z,13.65
2023-05-09T22:28:07.700Z,13.78
2023-05-09T22:31:10.600Z,13.77
2023-05-09T22:34:13.240Z,13.68
2023-05-09T22:37:17.022Z,13.70
2023-05-09T22:40:21.098Z,13.70
2023-05-09T22:43:25.397Z,13.83
2023-05-09T22:46:31.462Z,13.66
2023-05-09T22:49:33.956Z,13.82
2023-05-09T22:52:36.612Z,13.71
2023-05-09T22:55:38.992Z,13.87
2023-05-09T22:58:41.717Z,13.88
2023-05-09T23:01:44.136Z,13.75
2023-05-09T23:04:47.010Z,13.84
2023-05-09T23:11:46.797Z,14.00
2023-05-09T23:14:49.484Z,14.03
2023-05-09T23:17:52.110Z,14.06
2023-05-09T23:20:54.476Z,13.96
2023-05-09T23:23:57.148Z,13.84
2023-05-09T23:26:59.539Z,14.12
2023-05-09T23:30:02.195Z,14.12
2023-05-09T23:33:04.567Z,14.08
2023-05-09T23:36:07.656Z,14.13
2023-05-09T23:39:10.052Z,14.03
2023-05-09T23:42:12.705Z,14.13
2023-05-09T23:45:15.111Z,14.00
2023-05-09T23:48:17.821Z,13.96
2023-05-09T23:51:21.616Z,13.94
2023-05-09T23:54:24.499Z,14.05
2023-05-09T23:57:29.231Z,14.01
